sensor_id;sensor_type;location;lat;lon;timestamp;P1;durP1;ratioP1;P2;durP2;ratioP2
42834;SDS011;29335;50.526;30.458;2022-08-05T00:01:13;14.02;;;12.73;;
42834;SDS011;29335;50.526;30.458;2022-08-05T00:03:40;13.10;;;11.90;;
42834;SDS011;29335;50.526;30.458;2022-08-05T00:06:06;13.50;;;12.40;;
42834;SDS011;29335;50.526;30.458;2022-08-05T00:08:33;13.68;;;12.32;;
42834;SDS011;29335;50.526;30.458;2022-08-05T00:10:59;14.65;;;11.95;;
42834;SDS011;29335;50.526;30.458;2022-08-05T00:13:26;13.35;;;12.05;;
42834;SDS011;29335;50.526;30.458;2022-08-05T00:15:52;13.05;;;11.85;;
42834;SDS011;29335;50.526;30.458;2022-08-05T00:18:17;12.48;;;11.38;;
42834;SDS011;29335;50.526;30.458;2022-08-05T00:20:43;11.80;;;10.80;;
42834;SDS011;29335;50.526;30.458;2022-08-05T00:23:09;12.63;;;11.43;;
42834;SDS011;29335;50.526;30.458;2022-08-05T00:25:34;12.18;;;11.07;;
42834;SDS011;29335;50.526;30.458;2022-08-05T00:28:00;11.55;;;10.52;;
42834;SDS011;29335;50.526;30.458;2022-08-05T00:30:26;12.43;;;11.32;;
42834;SDS011;29335;50.526;30.458;2022-08-05T00:32:51;11.57;;;10.57;;
42834;SDS011;29335;50.526;30.458;2022-08-05T00:35:17;11.45;;;10.45;;
42834;SDS011;29335;50.526;30.458;2022-08-05T00:37:42;11.45;;;10.35;;
42834;SDS011;29335;50.526;30.458;2022-08-05T00:40:08;13.95;;;11.05;;
42834;SDS011;29335;50.526;30.458;2022-08-05T00:42:35;12.07;;;10.88;;
42834;SDS011;29335;50.526;30.458;2022-08-05T00:45:01;12.68;;;10.38;;
42834;SDS011;29335;50.526;30.458;2022-08-05T00:47:29;11.70;;;10.68;;
42834;SDS011;29335;50.526;30.458;2022-08-05T00:49:55;11.32;;;10.25;;
42834;SDS011;29335;50.526;30.458;2022-08-05T00:52:20;11.20;;;10.25;;
42834;SDS011;29335;50.526;30.458;2022-08-05T00:54:46;11.07;;;10.07;;
42834;SDS011;29335;50.526;30.458;2022-08-05T00:57:12;12.43;;;11.20;;
42834;SDS011;29335;50.526;30.458;2022-08-05T00:59:38;11.60;;;10.63;;
42834;SDS011;29335;50.526;30.458;2022-08-05T01:02:04;11.82;;;10.73;;
42834;SDS011;29335;50.526;30.458;2022-08-05T01:04:29;11.82;;;10.52;;
42834;SDS011;29335;50.526;30.458;2022-08-05T01:06:55;11.80;;;10.77;;
42834;SDS011;29335;50.526;30.458;2022-08-05T01:09:21;12.05;;;10.77;;
42834;SDS011;29335;50.526;30.458;2022-08-05T01:11:47;11.95;;;10.85;;
42834;SDS011;29335;50.526;30.458;2022-08-05T01:14:31;12.13;;;11.02;;
42834;SDS011;29335;50.526;30.458;2022-08-05T01:17:05;12.70;;;11.60;;
42834;SDS011;29335;50.526;30.458;2022-08-05T01:19:38;12.18;;;10.98;;
42834;SDS011;29335;50.526;30.458;2022-08-05T01:33:36;12.50;;;11.30;;
42834;SDS011;29335;50.526;30.458;2022-08-05T01:36:08;11.93;;;10.88;;
42834;SDS011;29335;50.526;30.458;2022-08-05T01:38:37;12.70;;;11.60;;
42834;SDS011;29335;50.526;30.458;2022-08-05T01:41:03;12.30;;;11.20;;
42834;SDS011;29335;50.526;30.458;2022-08-05T01:43:31;15.48;;;12.05;;
42834;SDS011;29335;50.526;30.458;2022-08-05T01:45:58;16.25;;;12.25;;
42834;SDS011;29335;50.526;30.458;2022-08-05T01:48:25;13.25;;;12.07;;
42834;SDS011;29335;50.526;30.458;2022-08-05T01:50:52;13.10;;;11.77;;
42834;SDS011;29335;50.526;30.458;2022-08-05T01:53:20;13.90;;;12.60;;
42834;SDS011;29335;50.526;30.458;2022-08-05T01:55:48;12.68;;;11.48;;
42834;SDS011;29335;50.526;30.458;2022-08-05T01:58:15;12.95;;;11.75;;
42834;SDS011;29335;50.526;30.458;2022-08-05T02:00:43;12.82;;;11.73;;
42834;SDS011;29335;50.526;30.458;2022-08-05T02:03:22;13.50;;;12.20;;
42834;SDS011;29335;50.526;30.458;2022-08-05T02:05:52;14.48;;;12.27;;
42834;SDS011;29335;50.526;30.458;2022-08-05T02:08:18;13.57;;;12.25;;
42834;SDS011;29335;50.526;30.458;2022-08-05T02:10:47;13.63;;;12.43;;
42834;SDS011;29335;50.526;30.458;2022-08-05T02:13:16;13.57;;;12.38;;
42834;SDS011;29335;50.526;30.458;2022-08-05T02:16:00;13.55;;;12.40;;
42834;SDS011;29335;50.526;30.458;2022-08-05T02:21:14;12.80;;;11.60;;
42834;SDS011;29335;50.526;30.458;2022-08-05T02:23:43;12.90;;;11.38;;
42834;SDS011;29335;50.526;30.458;2022-08-05T02:26:12;12.82;;;11.73;;
42834;SDS011;29335;50.526;30.458;2022-08-05T02:28:45;12.75;;;11.63;;
42834;SDS011;29335;50.526;30.458;2022-08-05T02:31:16;12.50;;;11.40;;
42834;SDS011;29335;50.526;30.458;2022-08-05T02:33:51;11.73;;;10.73;;
42834;SDS011;29335;50.526;30.458;2022-08-05T02:36:21;12.45;;;11.27;;
42834;SDS011;29335;50.526;30.458;2022-08-05T02:38:49;12.45;;;11.27;;
42834;SDS011;29335;50.526;30.458;2022-08-05T02:41:17;11.82;;;10.68;;
42834;SDS011;29335;50.526;30.458;2022-08-05T02:43:45;11.10;;;9.95;;
42834;SDS011;29335;50.526;30.458;2022-08-05T02:46:15;12.13;;;10.93;;
42834;SDS011;29335;50.526;30.458;2022-08-05T02:48:42;12.57;;;11.48;;
42834;SDS011;29335;50.526;30.458;2022-08-05T02:51:09;11.77;;;10.60;;
42834;SDS011;29335;50.526;30.458;2022-08-05T02:53:37;12.10;;;10.88;;
42834;SDS011;29335;50.526;30.458;2022-08-05T02:56:04;12.10;;;11.00;;
42834;SDS011;29335;50.526;30.458;2022-08-05T02:58:30;11.60;;;10.60;;
42834;SDS011;29335;50.526;30.458;2022-08-05T03:00:57;11.07;;;10.18;;
42834;SDS011;29335;50.526;30.458;2022-08-05T03:03:25;12.60;;;10.82;;
42834;SDS011;29335;50.526;30.458;2022-08-05T03:05:53;11.55;;;10.48;;
42834;SDS011;29335;50.526;30.458;2022-08-05T03:08:19;12.30;;;11.15;;
42834;SDS011;29335;50.526;30.458;2022-08-05T03:10:46;12.15;;;11.13;;
42834;SDS011;29335;50.526;30.458;2022-08-05T03:13:16;12.70;;;11.60;;
42834;SDS011;29335;50.526;30.458;2022-08-05T03:15:42;12.52;;;11.18;;
42834;SDS011;29335;50.526;30.458;2022-08-05T03:18:09;12.48;;;11.38;;
42834;SDS011;29335;50.526;30.458;2022-08-05T03:20:35;12.35;;;11.25;;
42834;SDS011;29335;50.526;30.458;2022-08-05T03:23:01;12.00;;;11.00;;
42834;SDS011;29335;50.526;30.458;2022-08-05T03:25:31;12.30;;;11.10;;
42834;SDS011;29335;50.526;30.458;2022-08-05T03:27:58;12.93;;;11.73;;
42834;SDS011;29335;50.526;30.458;2022-08-05T03:30:25;13.43;;;12.23;;
42834;SDS011;29335;50.526;30.458;2022-08-05T03:32:52;12.80;;;11.70;;
42834;SDS011;29335;50.526;30.458;2022-08-05T03:35:19;11.75;;;10.60;;
42834;SDS011;29335;50.526;30.458;2022-08-05T03:37:46;12.93;;;11.45;;
42834;SDS011;29335;50.526;30.458;2022-08-05T03:40:11;11.52;;;10.43;;
42834;SDS011;29335;50.526;30.458;2022-08-05T03:42:38;12.57;;;11.38;;
42834;SDS011;29335;50.526;30.458;2022-08-05T03:45:06;12.00;;;10.93;;
42834;SDS011;29335;50.526;30.458;2022-08-05T03:47:33;12.15;;;10.85;;
42834;SDS011;29335;50.526;30.458;2022-08-05T03:49:58;11.05;;;10.07;;
42834;SDS011;29335;50.526;30.458;2022-08-05T03:52:26;11.80;;;10.70;;
42834;SDS011;29335;50.526;30.458;2022-08-05T03:55:02;11.65;;;10.45;;
42834;SDS011;29335;50.526;30.458;2022-08-05T03:57:34;11.80;;;10.68;;
42834;SDS011;29335;50.526;30.458;2022-08-05T04:00:06;12.80;;;11.63;;
42834;SDS011;29335;50.526;30.458;2022-08-05T04:02:33;12.30;;;11.00;;
42834;SDS011;29335;50.526;30.458;2022-08-05T04:05:00;12.57;;;11.40;;
42834;SDS011;29335;50.526;30.458;2022-08-05T04:07:27;12.98;;;11.68;;
42834;SDS011;29335;50.526;30.458;2022-08-05T04:09:53;12.50;;;11.18;;
42834;SDS011;29335;50.526;30.458;2022-08-05T04:12:20;11.57;;;10.63;;
42834;SDS011;29335;50.526;30.458;2022-08-05T04:14:46;12.30;;;11.10;;
42834;SDS011;29335;50.526;30.458;2022-08-05T04:17:12;12.07;;;10.98;;
42834;SDS011;29335;50.526;30.458;2022-08-05T04:19:42;11.23;;;10.18;;
42834;SDS011;29335;50.526;30.458;2022-08-05T04:22:08;12.73;;;11.52;;
42834;SDS011;29335;50.526;30.458;2022-08-05T04:24:35;12.23;;;11.02;;
42834;SDS011;29335;50.526;30.458;2022-08-05T04:27:08;13.05;;;11.77;;
42834;SDS011;29335;50.526;30.458;2022-08-05T04:29:34;13.35;;;11.70;;
42834;SDS011;29335;50.526;30.458;2022-08-05T04:32:00;12.88;;;11.55;;
42834;SDS011;29335;50.526;30.458;2022-08-05T04:34:26;13.35;;;12.10;;
42834;SDS011;29335;50.526;30.458;2022-08-05T04:36:51;12.50;;;11.27;;
42834;SDS011;29335;50.526;30.458;2022-08-05T04:39:17;13.15;;;11.88;;
42834;SDS011;29335;50.526;30.458;2022-08-05T04:41:43;13.32;;;12.13;;
42834;SDS011;29335;50.526;30.458;2022-08-05T04:44:09;17.88;;;16.23;;
42834;SDS011;29335;50.526;30.458;2022-08-05T04:46:36;23.55;;;21.52;;
42834;SDS011;29335;50.526;30.458;2022-08-05T04:49:02;13.23;;;12.07;;
42834;SDS011;29335;50.526;30.458;2022-08-05T04:51:28;13.98;;;12.63;;
42834;SDS011;29335;50.526;30.458;2022-08-05T04:53:53;13.43;;;12.13;;
42834;SDS011;29335;50.526;30.458;2022-08-05T04:56:19;13.63;;;12.20;;
42834;SDS011;29335;50.526;30.458;2022-08-05T04:58:45;13.30;;;12.00;;
42834;SDS011;29335;50.526;30.458;2022-08-05T05:01:10;14.00;;;12.65;;
42834;SDS011;29335;50.526;30.458;2022-08-05T05:03:36;12.50;;;11.30;;
42834;SDS011;29335;50.526;30.458;2022-08-05T05:06:01;12.75;;;11.63;;
42834;SDS011;29335;50.526;30.458;2022-08-05T05:08:27;12.50;;;11.30;;
42834;SDS011;29335;50.526;30.458;2022-08-05T05:10:53;12.18;;;11.18;;
42834;SDS011;29335;50.526;30.458;2022-08-05T05:13:19;13.07;;;11.88;;
42834;SDS011;29335;50.526;30.458;2022-08-05T05:15:45;13.38;;;12.10;;
42834;SDS011;29335;50.526;30.458;2022-08-05T05:18:12;12.50;;;11.40;;
42834;SDS011;29335;50.526;30.458;2022-08-05T05:20:44;13.98;;;12.77;;
42834;SDS011;29335;50.526;30.458;2022-08-05T05:23:11;12.82;;;11.38;;
42834;SDS011;29335;50.526;30.458;2022-08-05T05:25:37;13.43;;;11.80;;
42834;SDS011;29335;50.526;30.458;2022-08-05T05:28:04;14.40;;;13.05;;
42834;SDS011;29335;50.526;30.458;2022-08-05T05:30:30;14.45;;;12.95;;
42834;SDS011;29335;50.526;30.458;2022-08-05T05:32:57;13.60;;;12.30;;
42834;SDS011;29335;50.526;30.458;2022-08-05T05:35:23;14.93;;;13.52;;
42834;SDS011;29335;50.526;30.458;2022-08-05T05:37:49;15.48;;;13.98;;
42834;SDS011;29335;50.526;30.458;2022-08-05T05:40:17;15.85;;;14.25;;
42834;SDS011;29335;50.526;30.458;2022-08-05T05:42:48;16.88;;;15.10;;
42834;SDS011;29335;50.526;30.458;2022-08-05T05:45:14;15.70;;;14.13;;
42834;SDS011;29335;50.526;30.458;2022-08-05T05:47:40;17.25;;;15.55;;
42834;SDS011;29335;50.526;30.458;2022-08-05T05:50:07;17.45;;;15.77;;
42834;SDS011;29335;50.526;30.458;2022-08-05T05:52:34;17.48;;;15.77;;
42834;SDS011;29335;50.526;30.458;2022-08-05T05:55:03;17.98;;;16.25;;
42834;SDS011;29335;50.526;30.458;2022-08-05T05:57:32;16.95;;;15.45;;
42834;SDS011;29335;50.526;30.458;2022-08-05T05:59:58;18.35;;;16.55;;
42834;SDS011;29335;50.526;30.458;2022-08-05T06:02:24;18.55;;;16.52;;
42834;SDS011;29335;50.526;30.458;2022-08-05T06:04:49;17.33;;;15.63;;
42834;SDS011;29335;50.526;30.458;2022-08-05T06:07:15;18.15;;;16.35;;
42834;SDS011;29335;50.526;30.458;2022-08-05T06:09:41;18.17;;;16.48;;
42834;SDS011;29335;50.526;30.458;2022-08-05T06:12:06;16.45;;;14.75;;
42834;SDS011;29335;50.526;30.458;2022-08-05T06:14:32;16.38;;;14.88;;
42834;SDS011;29335;50.526;30.458;2022-08-05T06:16:58;18.05;;;16.35;;
42834;SDS011;29335;50.526;30.458;2022-08-05T06:19:24;18.10;;;16.30;;
42834;SDS011;29335;50.526;30.458;2022-08-05T06:21:50;16.75;;;15.27;;
42834;SDS011;29335;50.526;30.458;2022-08-05T06:24:16;17.98;;;16.25;;
42834;SDS011;29335;50.526;30.458;2022-08-05T06:26:42;16.48;;;14.88;;
42834;SDS011;29335;50.526;30.458;2022-08-05T06:29:08;18.45;;;16.75;;
42834;SDS011;29335;50.526;30.458;2022-08-05T06:31:33;19.77;;;17.98;;
42834;SDS011;29335;50.526;30.458;2022-08-05T06:34:00;20.13;;;18.08;;
42834;SDS011;29335;50.526;30.458;2022-08-05T06:36:26;20.38;;;18.52;;
42834;SDS011;29335;50.526;30.458;2022-08-05T06:38:52;19.98;;;18.10;;
42834;SDS011;29335;50.526;30.458;2022-08-05T06:41:19;19.80;;;17.90;;
42834;SDS011;29335;50.526;30.458;2022-08-05T06:43:45;20.42;;;18.60;;
42834;SDS011;29335;50.526;30.458;2022-08-05T06:46:11;18.65;;;16.95;;
42834;SDS011;29335;50.526;30.458;2022-08-05T06:48:37;19.52;;;17.63;;
42834;SDS011;29335;50.526;30.458;2022-08-05T06:51:02;18.83;;;17.13;;
42834;SDS011;29335;50.526;30.458;2022-08-05T06:53:28;18.65;;;16.85;;
42834;SDS011;29335;50.526;30.458;2022-08-05T06:55:57;21.27;;;16.98;;
42834;SDS011;29335;50.526;30.458;2022-08-05T06:58:24;18.70;;;16.90;;
42834;SDS011;29335;50.526;30.458;2022-08-05T07:00:51;17.55;;;15.88;;
42834;SDS011;29335;50.526;30.458;2022-08-05T07:03:16;18.60;;;16.90;;
42834;SDS011;29335;50.526;30.458;2022-08-05T07:05:42;17.35;;;15.65;;
42834;SDS011;29335;50.526;30.458;2022-08-05T07:08:09;18.70;;;17.00;;
42834;SDS011;29335;50.526;30.458;2022-08-05T07:10:35;17.70;;;16.05;;
42834;SDS011;29335;50.526;30.458;2022-08-05T07:13:01;17.90;;;16.20;;
42834;SDS011;29335;50.526;30.458;2022-08-05T07:15:45;16.17;;;14.55;;
42834;SDS011;29335;50.526;30.458;2022-08-05T07:18:29;16.02;;;14.63;;
42834;SDS011;29335;50.526;30.458;2022-08-05T07:20:55;15.70;;;14.38;;
42834;SDS011;29335;50.526;30.458;2022-08-05T07:23:20;16.25;;;14.85;;
42834;SDS011;29335;50.526;30.458;2022-08-05T07:25:46;16.02;;;14.63;;
42834;SDS011;29335;50.526;30.458;2022-08-05T07:28:12;16.80;;;15.30;;
42834;SDS011;29335;50.526;30.458;2022-08-05T07:30:38;16.73;;;15.18;;
42834;SDS011;29335;50.526;30.458;2022-08-05T07:33:06;15.93;;;14.52;;
42834;SDS011;29335;50.526;30.458;2022-08-05T07:35:36;17.20;;;15.43;;
42834;SDS011;29335;50.526;30.458;2022-08-05T07:38:03;17.27;;;15.60;;
42834;SDS011;29335;50.526;30.458;2022-08-05T07:40:28;16.58;;;15.07;;
42834;SDS011;29335;50.526;30.458;2022-08-05T07:42:54;17.73;;;16.20;;
42834;SDS011;29335;50.526;30.458;2022-08-05T07:45:19;17.13;;;15.63;;
42834;SDS011;29335;50.526;30.458;2022-08-05T07:47:45;16.80;;;15.27;;
42834;SDS011;29335;50.526;30.458;2022-08-05T07:50:11;18.45;;;16.63;;
42834;SDS011;29335;50.526;30.458;2022-08-05T07:52:37;18.15;;;16.48;;
42834;SDS011;29335;50.526;30.458;2022-08-05T07:55:04;18.65;;;17.05;;
42834;SDS011;29335;50.526;30.458;2022-08-05T07:57:30;16.98;;;15.43;;
42834;SDS011;29335;50.526;30.458;2022-08-05T07:59:56;18.08;;;16.35;;
42834;SDS011;29335;50.526;30.458;2022-08-05T08:02:25;18.92;;;17.23;;
42834;SDS011;29335;50.526;30.458;2022-08-05T08:04:52;18.73;;;17.03;;
42834;SDS011;29335;50.526;30.458;2022-08-05T08:07:18;16.25;;;14.85;;
42834;SDS011;29335;50.526;30.458;2022-08-05T08:09:45;17.70;;;16.10;;
42834;SDS011;29335;50.526;30.458;2022-08-05T08:12:11;17.25;;;15.75;;
42834;SDS011;29335;50.526;30.458;2022-08-05T08:14:37;17.45;;;15.65;;
42834;SDS011;29335;50.526;30.458;2022-08-05T08:17:03;17.15;;;15.45;;
42834;SDS011;29335;50.526;30.458;2022-08-05T08:19:29;17.23;;;15.70;;
42834;SDS011;29335;50.526;30.458;2022-08-05T08:21:55;16.52;;;15.02;;
42834;SDS011;29335;50.526;30.458;2022-08-05T08:24:20;16.20;;;14.70;;
42834;SDS011;29335;50.526;30.458;2022-08-05T08:26:46;15.75;;;13.98;;
42834;SDS011;29335;50.526;30.458;2022-08-05T08:29:14;18.70;;;16.75;;
42834;SDS011;29335;50.526;30.458;2022-08-05T08:31:40;17.88;;;16.23;;
42834;SDS011;29335;50.526;30.458;2022-08-05T08:34:05;17.65;;;16.05;;
42834;SDS011;29335;50.526;30.458;2022-08-05T08:36:31;16.98;;;15.45;;
42834;SDS011;29335;50.526;30.458;2022-08-05T08:38:57;18.85;;;17.10;;
42834;SDS011;29335;50.526;30.458;2022-08-05T08:41:24;19.33;;;17.52;;
42834;SDS011;29335;50.526;30.458;2022-08-05T08:43:51;18.38;;;16.58;;
42834;SDS011;29335;50.526;30.458;2022-08-05T08:46:19;18.30;;;16.60;;
42834;SDS011;29335;50.526;30.458;2022-08-05T08:48:47;18.38;;;16.67;;
42834;SDS011;29335;50.526;30.458;2022-08-05T08:51:14;17.17;;;15.52;;
42834;SDS011;29335;50.526;30.458;2022-08-05T08:53:43;17.42;;;15.82;;
42834;SDS011;29335;50.526;30.458;2022-08-05T08:56:09;16.48;;;14.98;;
42834;SDS011;29335;50.526;30.458;2022-08-05T08:58:35;16.65;;;15.18;;
42834;SDS011;29335;50.526;30.458;2022-08-05T09:01:01;17.88;;;16.23;;
42834;SDS011;29335;50.526;30.458;2022-08-05T09:03:27;15.32;;;14.02;;
42834;SDS011;29335;50.526;30.458;2022-08-05T09:05:53;16.13;;;14.57;;
42834;SDS011;29335;50.526;30.458;2022-08-05T09:08:18;18.45;;;16.52;;
42834;SDS011;29335;50.526;30.458;2022-08-05T09:10:46;16.80;;;15.35;;
42834;SDS011;29335;50.526;30.458;2022-08-05T09:13:12;17.63;;;16.02;;
42834;SDS011;29335;50.526;30.458;2022-08-05T09:15:39;19.10;;;17.48;;
42834;SDS011;29335;50.526;30.458;2022-08-05T09:18:05;17.75;;;16.25;;
42834;SDS011;29335;50.526;30.458;2022-08-05T09:20:32;17.27;;;15.77;;
42834;SDS011;29335;50.526;30.458;2022-08-05T09:23:09;17.33;;;15.82;;
42834;SDS011;29335;50.526;30.458;2022-08-05T09:25:37;17.90;;;16.30;;
42834;SDS011;29335;50.526;30.458;2022-08-05T09:28:14;17.67;;;15.90;;
42834;SDS011;29335;50.526;30.458;2022-08-05T09:33:12;16.65;;;15.15;;
42834;SDS011;29335;50.526;30.458;2022-08-05T09:35:38;15.82;;;14.50;;
42834;SDS011;29335;50.526;30.458;2022-08-05T09:38:24;16.42;;;14.77;;
42834;SDS011;29335;50.526;30.458;2022-08-05T09:40:51;16.80;;;15.27;;
42834;SDS011;29335;50.526;30.458;2022-08-05T09:43:28;18.55;;;16.90;;
42834;SDS011;29335;50.526;30.458;2022-08-05T09:45:57;17.38;;;15.77;;
42834;SDS011;29335;50.526;30.458;2022-08-05T09:48:29;17.80;;;16.10;;
42834;SDS011;29335;50.526;30.458;2022-08-05T09:51:01;17.58;;;15.98;;
42834;SDS011;29335;50.526;30.458;2022-08-05T09:53:28;15.82;;;14.43;;
42834;SDS011;29335;50.526;30.458;2022-08-05T09:56:09;16.20;;;14.80;;
42834;SDS011;29335;50.526;30.458;2022-08-05T09:58:35;17.45;;;15.82;;
42834;SDS011;29335;50.526;30.458;2022-08-05T10:01:02;16.92;;;15.43;;
42834;SDS011;29335;50.526;30.458;2022-08-05T10:03:29;16.60;;;15.00;;
42834;SDS011;29335;50.526;30.458;2022-08-05T10:06:07;17.50;;;15.75;;
42834;SDS011;29335;50.526;30.458;2022-08-05T10:08:35;16.77;;;15.32;;
42834;SDS011;29335;50.526;30.458;2022-08-05T10:11:03;18.13;;;16.52;;
42834;SDS011;29335;50.526;30.458;2022-08-05T10:13:37;16.58;;;15.18;;
42834;SDS011;29335;50.526;30.458;2022-08-05T10:16:03;16.05;;;14.57;;
42834;SDS011;29335;50.526;30.458;2022-08-05T10:18:31;16.83;;;15.32;;
42834;SDS011;29335;50.526;30.458;2022-08-05T10:21:02;18.48;;;16.67;;
42834;SDS011;29335;50.526;30.458;2022-08-05T10:23:36;18.45;;;16.88;;
42834;SDS011;29335;50.526;30.458;2022-08-05T10:26:06;16.25;;;14.90;;
42834;SDS011;29335;50.526;30.458;2022-08-05T10:28:34;16.83;;;15.25;;
42834;SDS011;29335;50.526;30.458;2022-08-05T10:31:00;18.83;;;17.13;;
42834;SDS011;29335;50.526;30.458;2022-08-05T10:33:28;17.85;;;16.35;;
42834;SDS011;29335;50.526;30.458;2022-08-05T10:35:55;17.48;;;16.00;;
42834;SDS011;29335;50.526;30.458;2022-08-05T10:38:22;17.80;;;16.00;;
42834;SDS011;29335;50.526;30.458;2022-08-05T10:43:32;19.63;;;17.83;;
42834;SDS011;29335;50.526;30.458;2022-08-05T10:46:11;19.17;;;17.58;;
42834;SDS011;29335;50.526;30.458;2022-08-05T10:48:48;18.70;;;16.90;;
42834;SDS011;29335;50.526;30.458;2022-08-05T10:51:20;18.30;;;16.73;;
42834;SDS011;29335;50.526;30.458;2022-08-05T10:56:15;19.25;;;17.17;;
42834;SDS011;29335;50.526;30.458;2022-08-05T11:01:17;17.90;;;16.30;;
42834;SDS011;29335;50.526;30.458;2022-08-05T11:04:05;17.85;;;16.25;;
42834;SDS011;29335;50.526;30.458;2022-08-05T11:06:32;16.38;;;14.73;;
42834;SDS011;29335;50.526;30.458;2022-08-05T11:11:46;17.67;;;16.08;;
42834;SDS011;29335;50.526;30.458;2022-08-05T11:14:21;16.95;;;15.55;;
42834;SDS011;29335;50.526;30.458;2022-08-05T11:19:49;16.95;;;15.55;;
42834;SDS011;29335;50.526;30.458;2022-08-05T11:33:27;15.38;;;14.07;;
42834;SDS011;29335;50.526;30.458;2022-08-05T11:35:57;14.93;;;13.55;;
42834;SDS011;29335;50.526;30.458;2022-08-05T11:41:16;15.15;;;13.85;;
42834;SDS011;29335;50.526;30.458;2022-08-05T11:43:57;16.40;;;14.98;;
42834;SDS011;29335;50.526;30.458;2022-08-05T11:48:54;15.73;;;14.32;;
42834;SDS011;29335;50.526;30.458;2022-08-05T11:51:21;14.68;;;13.18;;
42834;SDS011;29335;50.526;30.458;2022-08-05T11:53:47;14.35;;;13.15;;
42834;SDS011;29335;50.526;30.458;2022-08-05T11:56:14;14.52;;;13.10;;
42834;SDS011;29335;50.526;30.458;2022-08-05T11:58:41;13.90;;;12.70;;
42834;SDS011;29335;50.526;30.458;2022-08-05T12:01:10;13.80;;;12.60;;
42834;SDS011;29335;50.526;30.458;2022-08-05T12:06:15;14.38;;;13.27;;
42834;SDS011;29335;50.526;30.458;2022-08-05T12:08:43;14.45;;;13.10;;
42834;SDS011;29335;50.526;30.458;2022-08-05T12:11:14;15.10;;;13.80;;
42834;SDS011;29335;50.526;30.458;2022-08-05T12:13:55;13.63;;;12.45;;
42834;SDS011;29335;50.526;30.458;2022-08-05T12:16:36;13.93;;;12.65;;
42834;SDS011;29335;50.526;30.458;2022-08-05T12:19:03;14.48;;;12.98;;
42834;SDS011;29335;50.526;30.458;2022-08-05T12:21:33;14.10;;;12.90;;
42834;SDS011;29335;50.526;30.458;2022-08-05T12:26:34;14.65;;;13.45;;
42834;SDS011;29335;50.526;30.458;2022-08-05T12:29:09;13.98;;;12.77;;
42834;SDS011;29335;50.526;30.458;2022-08-05T12:31:37;13.73;;;12.43;;
42834;SDS011;29335;50.526;30.458;2022-08-05T12:34:04;13.98;;;12.88;;
42834;SDS011;29335;50.526;30.458;2022-08-05T12:36:32;14.07;;;12.90;;
42834;SDS011;29335;50.526;30.458;2022-08-05T12:38:59;13.00;;;11.80;;
42834;SDS011;29335;50.526;30.458;2022-08-05T12:41:32;14.13;;;12.85;;
42834;SDS011;29335;50.526;30.458;2022-08-05T12:44:03;14.40;;;13.20;;
42834;SDS011;29335;50.526;30.458;2022-08-05T12:46:32;13.80;;;12.60;;
42834;SDS011;29335;50.526;30.458;2022-08-05T12:51:30;13.05;;;11.95;;
42834;SDS011;29335;50.526;30.458;2022-08-05T12:53:57;13.50;;;12.30;;
42834;SDS011;29335;50.526;30.458;2022-08-05T12:56:24;14.25;;;12.85;;
42834;SDS011;29335;50.526;30.458;2022-08-05T13:01:42;13.60;;;12.60;;
42834;SDS011;29335;50.526;30.458;2022-08-05T13:04:09;13.38;;;12.23;;
42834;SDS011;29335;50.526;30.458;2022-08-05T13:06:39;12.10;;;11.00;;
42834;SDS011;29335;50.526;30.458;2022-08-05T13:09:07;12.75;;;11.40;;
42834;SDS011;29335;50.526;30.458;2022-08-05T13:11:36;12.70;;;11.70;;
42834;SDS011;29335;50.526;30.458;2022-08-05T13:14:24;12.35;;;11.15;;
42834;SDS011;29335;50.526;30.458;2022-08-05T13:16:51;12.18;;;11.27;;
42834;SDS011;29335;50.526;30.458;2022-08-05T13:19:19;11.60;;;10.63;;
42834;SDS011;29335;50.526;30.458;2022-08-05T13:21:49;12.25;;;11.25;;
42834;SDS011;29335;50.526;30.458;2022-08-05T13:24:15;11.98;;;10.88;;
42834;SDS011;29335;50.526;30.458;2022-08-05T13:26:43;11.85;;;10.85;;
42834;SDS011;29335;50.526;30.458;2022-08-05T13:29:09;12.73;;;11.52;;
42834;SDS011;29335;50.526;30.458;2022-08-05T13:31:35;12.07;;;11.07;;
42834;SDS011;29335;50.526;30.458;2022-08-05T13:34:00;11.40;;;10.50;;
42834;SDS011;29335;50.526;30.458;2022-08-05T13:36:26;12.50;;;11.27;;
42834;SDS011;29335;50.526;30.458;2022-08-05T13:38:51;12.50;;;11.40;;
42834;SDS011;29335;50.526;30.458;2022-08-05T13:41:17;12.05;;;10.95;;
42834;SDS011;29335;50.526;30.458;2022-08-05T13:43:43;11.68;;;10.68;;
42834;SDS011;29335;50.526;30.458;2022-08-05T13:46:09;11.10;;;10.20;;
42834;SDS011;29335;50.526;30.458;2022-08-05T13:48:35;11.48;;;10.57;;
42834;SDS011;29335;50.526;30.458;2022-08-05T13:51:06;11.65;;;10.65;;
42834;SDS011;29335;50.526;30.458;2022-08-05T13:53:37;11.55;;;10.43;;
42834;SDS011;29335;50.526;30.458;2022-08-05T13:56:03;12.07;;;10.32;;
42834;SDS011;29335;50.526;30.458;2022-08-05T13:58:29;11.95;;;10.85;;
42834;SDS011;29335;50.526;30.458;2022-08-05T14:00:55;11.68;;;10.68;;
42834;SDS011;29335;50.526;30.458;2022-08-05T14:03:20;11.82;;;10.82;;
42834;SDS011;29335;50.526;30.458;2022-08-05T14:05:46;11.25;;;10.35;;
42834;SDS011;29335;50.526;30.458;2022-08-05T14:08:12;11.55;;;10.50;;
42834;SDS011;29335;50.526;30.458;2022-08-05T14:10:38;11.90;;;10.88;;
42834;SDS011;29335;50.526;30.458;2022-08-05T14:13:04;10.82;;;9.93;;
42834;SDS011;29335;50.526;30.458;2022-08-05T14:15:31;12.07;;;10.88;;
42834;SDS011;29335;50.526;30.458;2022-08-05T14:17:58;11.48;;;10.48;;
42834;SDS011;29335;50.526;30.458;2022-08-05T14:20:23;11.52;;;10.55;;
42834;SDS011;29335;50.526;30.458;2022-08-05T14:22:49;11.77;;;10.77;;
42834;SDS011;29335;50.526;30.458;2022-08-05T14:25:15;12.02;;;11.00;;
42834;SDS011;29335;50.526;30.458;2022-08-05T14:27:42;11.95;;;10.80;;
42834;SDS011;29335;50.526;30.458;2022-08-05T14:30:08;11.75;;;10.75;;
42834;SDS011;29335;50.526;30.458;2022-08-05T14:32:34;11.73;;;10.73;;
42834;SDS011;29335;50.526;30.458;2022-08-05T14:35:01;13.05;;;11.35;;
42834;SDS011;29335;50.526;30.458;2022-08-05T14:37:27;11.32;;;10.43;;
42834;SDS011;29335;50.526;30.458;2022-08-05T14:39:53;11.85;;;10.85;;
42834;SDS011;29335;50.526;30.458;2022-08-05T14:42:18;10.93;;;9.93;;
42834;SDS011;29335;50.526;30.458;2022-08-05T14:44:44;10.95;;;10.05;;
42834;SDS011;29335;50.526;30.458;2022-08-05T14:47:10;11.27;;;10.38;;
42834;SDS011;29335;50.526;30.458;2022-08-05T14:49:35;12.15;;;11.13;;
42834;SDS011;29335;50.526;30.458;2022-08-05T14:52:01;11.10;;;10.10;;
42834;SDS011;29335;50.526;30.458;2022-08-05T14:54:27;11.77;;;10.60;;
42834;SDS011;29335;50.526;30.458;2022-08-05T14:56:52;11.43;;;10.23;;
42834;SDS011;29335;50.526;30.458;2022-08-05T14:59:18;11.43;;;10.50;;
42834;SDS011;29335;50.526;30.458;2022-08-05T15:01:45;11.10;;;10.20;;
42834;SDS011;29335;50.526;30.458;2022-08-05T15:04:11;11.30;;;10.25;;
42834;SDS011;29335;50.526;30.458;2022-08-05T15:06:37;11.60;;;10.60;;
42834;SDS011;29335;50.526;30.458;2022-08-05T15:09:03;10.98;;;10.07;;